createdAt,value
2022-07-28T00:04:38.947Z,4.47
2022-07-28T00:09:41.772Z,4.28
2022-07-28T00:14:44.668Z,4.47
2022-07-28T00:19:47.554Z,4.18
2022-07-28T00:24:50.620Z,3.90
2022-07-28T00:29:53.378Z,3.63
2022-07-28T00:34:56.326Z,4.03
2022-07-28T00:39:59.855Z,3.85
2022-07-28T00:45:02.818Z,3.83
2022-07-28T00:50:06.450Z,4.10
2022-07-28T00:55:09.644Z,3.90
2022-07-28T01:00:12.822Z,2.92
2022-07-28T01:05:16.565Z,2.50
2022-07-28T01:10:33.779Z,2.70
2022-07-28T01:15:49.046Z,2.90
2022-07-28T01:20:55.506Z,2.45
2022-07-28T01:26:22.554Z,2.60
2022-07-28T01:31:28.228Z,2.40
2022-07-28T01:36:38.645Z,2.30
2022-07-28T01:41:43.916Z,1.93
2022-07-28T01:46:48.319Z,1.92
2022-07-28T01:51:52.809Z,2.10
2022-07-28T01:56:57.662Z,1.30
2022-07-28T02:02:01.771Z,1.80
2022-07-28T02:07:05.594Z,1.43
2022-07-28T02:12:10.109Z,1.70
2022-07-28T02:17:18.105Z,1.98
2022-07-28T02:22:21.594Z,1.60
2022-07-28T02:27:30.851Z,1.33
2022-07-28T02:32:42.908Z,1.63
2022-07-28T02:37:54.050Z,1.55
2022-07-28T02:42:59.045Z,1.80
2022-07-28T02:48:05.902Z,1.70
2022-07-28T02:53:14.949Z,1.70
2022-07-28T02:58:22.818Z,1.53
2022-07-28T03:03:26.238Z,1.67
2022-07-28T03:08:29.275Z,1.80
2022-07-28T03:13:32.805Z,1.60
2022-07-28T03:18:36.115Z,1.67
2022-07-28T03:23:43.735Z,1.67
2022-07-28T03:28:48.204Z,1.80
2022-07-28T03:33:51.704Z,2.08
2022-07-28T03:39:04.256Z,1.67
2022-07-28T03:44:09.065Z,1.90
2022-07-28T03:49:12.115Z,1.70
2022-07-28T03:54:15.618Z,1.67
2022-07-28T03:59:19.971Z,1.52
2022-07-28T04:04:24.630Z,1.48
2022-07-28T04:09:27.517Z,1.60
2022-07-28T04:14:30.375Z,2.00
2022-07-28T04:19:33.086Z,1.90
2022-07-28T04:24:36.415Z,1.70
2022-07-28T04:29:39.441Z,1.65
2022-07-28T04:34:42.616Z,2.08
2022-07-28T04:39:46.181Z,2.00
2022-07-28T04:44:49.174Z,1.75
2022-07-28T04:49:52.667Z,1.73
2022-07-28T04:54:55.809Z,2.00
2022-07-28T05:00:00.421Z,1.80
2022-07-28T05:05:03.496Z,1.77
2022-07-28T05:10:09.358Z,1.80
2022-07-28T05:15:12.250Z,1.70
2022-07-28T05:20:15.349Z,2.00
2022-07-28T05:25:21.059Z,2.30
2022-07-28T05:30:24.233Z,2.17
2022-07-28T05:35:27.345Z,1.85
2022-07-28T05:40:30.437Z,1.90
2022-07-28T05:45:34.809Z,2.05
2022-07-28T05:50:37.872Z,1.67
2022-07-28T05:55:59.629Z,2.37
2022-07-28T06:01:04.637Z,2.10
2022-07-28T06:06:14.659Z,1.98
2022-07-28T06:11:22.709Z,2.00
2022-07-28T06:16:26.300Z,1.80
2022-07-28T06:21:29.163Z,2.17
2022-07-28T06:26:32.089Z,2.60
2022-07-28T06:31:36.057Z,2.60
2022-07-28T06:36:39.051Z,2.13
2022-07-28T06:41:42.427Z,2.30
2022-07-28T06:46:45.413Z,2.20
2022-07-28T06:51:48.346Z,2.28
2022-07-28T06:56:51.186Z,2.60
2022-07-28T07:01:56.008Z,2.38
2022-07-28T07:06:58.890Z,2.42
2022-07-28T07:12:02.336Z,2.70
2022-07-28T07:17:05.475Z,2.63
2022-07-28T07:22:08.969Z,2.97
2022-07-28T07:27:12.206Z,2.80
2022-07-28T07:32:15.002Z,2.45
2022-07-28T07:37:17.955Z,2.70
2022-07-28T07:42:21.375Z,2.55
2022-07-28T07:47:28.034Z,2.50
2022-07-28T07:52:30.870Z,2.80
2022-07-28T07:57:34.029Z,2.92
2022-07-28T08:02:40.406Z,2.80
2022-07-28T08:07:44.364Z,2.78
2022-07-28T08:12:48.234Z,2.47
2022-07-28T08:17:51.297Z,2.38
2022-07-28T08:22:56.565Z,2.90
2022-07-28T08:27:59.895Z,2.63
2022-07-28T08:33:03.425Z,3.00
2022-07-28T08:38:06.571Z,2.70
2022-07-28T08:43:22.711Z,2.83
2022-07-28T08:48:27.665Z,2.67
2022-07-28T08:53:38.906Z,2.80
2022-07-28T08:58:42.415Z,2.78
2022-07-28T09:03:46.156Z,3.20
2022-07-28T09:08:49.599Z,3.22
2022-07-28T09:13:54.141Z,3.25
2022-07-28T09:18:57.335Z,3.30
2022-07-28T09:24:01.700Z,3.13
2022-07-28T09:29:04.687Z,3.00
2022-07-28T09:34:07.512Z,3.47
2022-07-28T09:39:10.841Z,3.30
2022-07-28T09:44:21.269Z,2.53
2022-07-28T09:49:43.016Z,2.70
2022-07-28T09:55:10.476Z,2.78
2022-07-28T10:00:28.216Z,2.75
2022-07-28T10:05:41.575Z,2.70
2022-07-28T10:10:59.190Z,3.20
2022-07-28T10:16:12.502Z,2.78
2022-07-28T10:21:18.366Z,2.55
2022-07-28T10:26:26.486Z,3.20
2022-07-28T10:31:36.329Z,2.45
2022-07-28T10:36:39.558Z,2.97
2022-07-28T10:41:43.573Z,2.72
2022-07-28T10:46:47.634Z,2.50
2022-07-28T10:52:08.897Z,2.72
2022-07-28T10:57:16.006Z,3.28
2022-07-28T11:02:59.081Z,2.70
2022-07-28T11:08:24.052Z,2.80
2022-07-28T11:13:33.211Z,2.72
2022-07-28T11:19:40.805Z,2.78
2022-07-28T11:25:18.889Z,2.67
2022-07-28T11:30:32.424Z,2.50
2022-07-28T11:35:41.570Z,2.80
2022-07-28T11:40:46.855Z,2.60
2022-07-28T11:46:11.852Z,2.60
2022-07-28T11:51:16.155Z,2.80
2022-07-28T11:56:32.007Z,2.63
2022-07-28T12:01:38.375Z,3.00
2022-07-28T12:06:43.357Z,2.95
2022-07-28T12:11:54.312Z,2.70
2022-07-28T12:16:57.282Z,3.03
2022-07-28T12:22:00.311Z,2.60
2022-07-28T12:27:04.690Z,3.17
2022-07-28T12:32:11.180Z,2.65
2022-07-28T12:37:15.130Z,3.13
2022-07-28T12:42:18.112Z,3.40
2022-07-28T12:47:28.536Z,3.00
2022-07-28T12:52:31.339Z,2.63
2022-07-28T12:57:51.218Z,2.63
2022-07-28T13:02:56.822Z,2.88
2022-07-28T13:08:04.981Z,3.08
2022-07-28T13:13:08.694Z,2.90
2022-07-28T13:18:12.275Z,2.95
2022-07-28T13:23:15.354Z,3.00
2022-07-28T13:28:28.359Z,2.85
2022-07-28T13:33:31.379Z,3.05
2022-07-28T13:38:34.501Z,3.33
2022-07-28T13:43:37.604Z,3.08
2022-07-28T13:48:57.824Z,3.00
2022-07-28T13:54:03.337Z,3.05
2022-07-28T13:59:07.337Z,2.90
2022-07-28T14:04:17.097Z,3.17
2022-07-28T14:09:21.169Z,3.15
2022-07-28T14:14:25.551Z,3.70
2022-07-28T14:19:39.116Z,2.97
2022-07-28T14:24:42.989Z,3.08
2022-07-28T14:29:46.096Z,3.20
2022-07-28T14:34:48.990Z,2.92
2022-07-28T14:39:52.107Z,2.92
2022-07-28T14:44:55.465Z,2.83
2022-07-28T14:49:58.811Z,2.90
2022-07-28T14:55:01.666Z,3.00
2022-07-28T15:00:10.930Z,3.38
2022-07-28T15:05:13.924Z,2.97
2022-07-28T15:10:17.260Z,3.20
2022-07-28T15:15:26.637Z,3.30
2022-07-28T15:20:29.737Z,2.80
2022-07-28T15:25:32.941Z,2.90
2022-07-28T15:30:36.077Z,3.28
2022-07-28T15:35:58.017Z,2.97
2022-07-28T15:41:05.221Z,2.88
2022-07-28T15:46:11.402Z,2.97
2022-07-28T15:51:14.782Z,3.05
2022-07-28T15:56:17.959Z,3.03
2022-07-28T16:01:21.089Z,2.95
2022-07-28T16:06:24.591Z,2.92
2022-07-28T16:11:27.537Z,3.20
2022-07-28T16:16:30.732Z,2.70
2022-07-28T16:21:33.889Z,2.60
2022-07-28T16:26:36.878Z,2.83
2022-07-28T16:31:45.066Z,2.50
2022-07-28T16:36:48.354Z,2.90
2022-07-28T16:41:53.271Z,3.10
2022-07-28T16:46:56.673Z,3.00
2022-07-28T16:51:59.998Z,2.70
2022-07-28T16:57:04.226Z,2.80
2022-07-28T17:02:10.228Z,2.73
2022-07-28T17:07:14.379Z,2.90
2022-07-28T17:12:17.660Z,2.90
2022-07-28T17:17:21.082Z,2.50
2022-07-28T17:22:24.469Z,2.88
2022-07-28T17:27:37.237Z,2.60
2022-07-28T17:32:42.041Z,2.70
2022-07-28T17:37:44.960Z,2.78
2022-07-28T17:42:48.328Z,3.22
2022-07-28T17:47:51.771Z,3.25
2022-07-28T17:52:54.921Z,3.63
2022-07-28T17:57:58.172Z,3.63
2022-07-28T18:03:01.974Z,4.22
2022-07-28T18:08:14.474Z,3.60
2022-07-28T18:13:22.000Z,4.10
2022-07-28T18:18:24.807Z,5.00
2022-07-28T18:23:28.137Z,5.68
2022-07-28T18:28:31.007Z,4.70
2022-07-28T18:33:33.893Z,5.30
2022-07-28T18:38:36.662Z,3.30
2022-07-28T18:43:39.634Z,3.53
2022-07-28T18:48:42.633Z,3.67
2022-07-28T18:53:45.540Z,4.20
2022-07-28T18:58:48.238Z,4.18
2022-07-28T19:03:51.101Z,4.07
2022-07-28T19:08:54.117Z,4.37
2022-07-28T19:13:56.907Z,4.03
2022-07-28T19:18:59.796Z,4.57
2022-07-28T19:24:02.710Z,4.53
2022-07-28T19:29:06.061Z,4.35
2022-07-28T19:34:09.476Z,3.77
2022-07-28T19:39:12.965Z,3.75
2022-07-28T19:44:16.702Z,3.65
2022-07-28T19:49:20.428Z,3.83
2022-07-28T19:54:24.202Z,3.70
2022-07-28T19:59:27.639Z,3.77
2022-07-28T20:04:30.543Z,3.85
2022-07-28T20:09:34.079Z,3.60
2022-07-28T20:14:37.279Z,3.53
2022-07-28T20:19:40.718Z,3.70
2022-07-28T20:24:44.717Z,3.83
2022-07-28T20:29:48.077Z,3.42
2022-07-28T20:34:52.246Z,3.30
2022-07-28T20:39:55.175Z,3.40
2022-07-28T20:44:58.028Z,3.65
2022-07-28T20:50:01.460Z,3.87
2022-07-28T20:55:05.030Z,4.10
2022-07-28T21:00:08.831Z,3.72
2022-07-28T21:05:26.414Z,3.38
2022-07-28T21:10:34.976Z,3.13
2022-07-28T21:15:37.943Z,3.40
2022-07-28T21:20:42.763Z,3.50
2022-07-28T21:25:46.817Z,3.65
2022-07-28T21:30:49.899Z,3.65
2022-07-28T21:35:53.322Z,4.00
2022-07-28T21:40:57.494Z,3.70
2022-07-28T21:46:00.940Z,3.78
2022-07-28T21:51:03.945Z,3.50
2022-07-28T21:56:20.580Z,3.63
2022-07-28T22:01:24.342Z,3.67
2022-07-28T22:06:27.349Z,3.50
2022-07-28T22:11:30.397Z,3.50
2022-07-28T22:16:33.417Z,3.53
2022-07-28T22:21:36.457Z,3.58
2022-07-28T22:26:39.229Z,4.05
2022-07-28T22:31:42.196Z,3.70
2022-07-28T22:36:45.409Z,3.67
2022-07-28T22:41:48.857Z,3.70
2022-07-28T22:46:52.165Z,3.78
2022-07-28T22:51:55.116Z,3.80
2022-07-28T22:57:54.102Z,3.53
2022-07-28T23:02:56.997Z,3.78
2022-07-28T23:07:59.790Z,3.80
2022-07-28T23:13:03.070Z,3.72
2022-07-28T23:18:06.251Z,4.03
2022-07-28T23:23:10.143Z,3.70
2022-07-28T23:28:13.386Z,4.30
2022-07-28T23:33:56.065Z,4.22
2022-07-28T23:38:39.551Z,4.22
2022-07-28T23:43:42.736Z,4.60
2022-07-28T23:48:45.698Z,4.17
2022-07-28T23:53:55.937Z,4.47
2022-07-28T23:58:59.229Z,4.40
